Time;durP1;ratioP1;P1;durP2;ratioP2;P2;SDS_P1;SDS_P2;PMS_P1;PMS_P2;Temp;Humidity;BMP_temperature;BMP_pressure;BME280_temperature;BME280_humidity;BME280_pressure;Samples;Min_cycle;Max_cycle;Signal;HPM_P1;HPM_P2
2023/10/09 00:01:04;;;;;;;19.75;10.50;;;13.90;99.90;;;;;;5020164;28;20526;-44
2023/10/09 00:03:29;;;;;;;20.85;11.38;;;13.90;99.90;;;;;;4993466;28;20356;-45
2023/10/09 00:05:55;;;;;;;15.35;11.32;;;13.90;99.90;;;;;;5020022;28;20124;-45
2023/10/09 00:08:21;;;;;;;19.05;11.57;;;13.80;99.90;;;;;;5018467;28;20533;-45
2023/10/09 00:10:54;;;;;;;21.98;12.38;;;13.80;99.90;;;;;;5018410;28;20515;-44
2023/10/09 00:13:32;;;;;;;21.80;12.52;;;13.80;99.90;;;;;;5020597;28;20272;-46
2023/10/09 00:16:08;;;;;;;24.73;13.23;;;13.80;99.90;;;;;;5019810;28;20056;-46
2023/10/09 00:18:34;;;;;;;26.20;13.63;;;13.80;99.90;;;;;;5009910;28;20095;-44
2023/10/09 00:21:20;;;;;;;22.83;12.93;;;13.80;99.90;;;;;;5019628;28;20068;-46
2023/10/09 00:23:55;;;;;;;24.55;13.48;;;13.70;99.90;;;;;;5019875;28;20125;-46
2023/10/09 00:26:22;;;;;;;20.95;13.02;;;13.70;99.90;;;;;;5002301;28;20046;-45
2023/10/09 00:28:51;;;;;;;21.58;14.15;;;13.80;99.90;;;;;;5019276;28;20054;-50
2023/10/09 00:31:30;;;;;;;24.02;15.10;;;13.80;99.90;;;;;;4986111;28;20152;-49
2023/10/09 00:34:07;;;;;;;20.45;15.57;;;13.80;99.90;;;;;;5020484;28;20049;-48
2023/10/09 00:36:33;;;;;;;23.30;14.70;;;13.70;99.90;;;;;;5011959;28;20102;-44
2023/10/09 00:39:11;;;;;;;26.25;15.02;;;13.70;99.90;;;;;;5020485;28;20041;-44
2023/10/09 00:41:37;;;;;;;26.50;15.60;;;13.70;99.90;;;;;;5020155;28;20048;-48
2023/10/09 00:44:07;;;;;;;26.92;17.63;;;13.70;99.90;;;;;;5023929;28;20038;-46
2023/10/09 00:46:34;;;;;;;26.30;15.82;;;13.70;99.90;;;;;;5002223;28;20064;-47
2023/10/09 00:49:02;;;;;;;23.63;16.52;;;13.70;99.90;;;;;;5018993;28;20084;-47
2023/10/09 00:51:34;;;;;;;33.88;18.35;;;13.70;99.90;;;;;;5019414;28;20088;-48
2023/10/09 00:54:06;;;;;;;28.60;17.00;;;13.70;99.90;;;;;;5019723;28;20103;-45
2023/10/09 00:56:43;;;;;;;30.13;18.55;;;13.70;99.90;;;;;;5019463;28;20056;-47
2023/10/09 00:59:14;;;;;;;29.75;18.58;;;13.70;99.90;;;;;;5018956;28;20045;-48
2023/10/09 01:01:45;;;;;;;27.38;18.40;;;13.60;99.90;;;;;;5001376;28;20153;-44
2023/10/09 01:04:11;;;;;;;32.42;19.05;;;13.70;99.90;;;;;;4993937;28;20079;-44
2023/10/09 01:06:47;;;;;;;31.25;19.30;;;13.70;99.90;;;;;;5001614;28;20045;-45
2023/10/09 01:09:14;;;;;;;27.70;19.95;;;13.60;99.90;;;;;;5018837;28;20115;-47
2023/10/09 01:14:42;;;;;;;34.97;21.20;;;13.60;99.90;;;;;;4985412;28;20049;-45
2023/10/09 01:17:08;;;;;;;40.30;22.83;;;13.60;99.90;;;;;;5019439;28;20045;-44
2023/10/09 01:19:34;;;;;;;41.30;23.55;;;13.70;99.90;;;;;;5000756;28;20049;-47
2023/10/09 01:22:16;;;;;;;42.22;23.10;;;13.60;99.90;;;;;;5019517;28;20049;-46
2023/10/09 01:24:43;;;;;;;41.28;24.15;;;13.60;99.90;;;;;;5019241;28;20308;-44
2023/10/09 01:27:14;;;;;;;41.88;25.60;;;13.60;99.90;;;;;;5019026;28;20124;-44
2023/10/09 01:29:41;;;;;;;38.75;23.48;;;13.60;99.90;;;;;;5001110;28;20134;-46
2023/10/09 01:32:16;;;;;;;41.33;26.83;;;13.60;99.90;;;;;;5019314;28;20490;-45
2023/10/09 01:34:42;;;;;;;42.30;25.83;;;13.60;99.90;;;;;;5019551;28;20045;-46
2023/10/09 01:37:11;;;;;;;46.88;29.58;;;13.70;99.90;;;;;;4996865;28;20172;-45
2023/10/09 01:39:42;;;;;;;41.45;25.70;;;13.70;99.90;;;;;;5001716;28;20457;-46
2023/10/09 01:42:09;;;;;;;49.97;28.60;;;13.70;99.90;;;;;;5524207;22;20090;-48
2023/10/09 01:44:38;;;;;;;50.90;30.23;;;13.70;99.90;;;;;;5051202;28;20056;-44
2023/10/09 01:47:13;;;;;;;45.53;28.17;;;13.70;99.90;;;;;;5063668;28;20112;-48
2023/10/09 01:49:43;;;;;;;48.85;30.27;;;13.70;99.90;;;;;;5060168;28;20051;-44
2023/10/09 01:52:16;;;;;;;46.35;29.88;;;13.70;99.90;;;;;;5052490;28;20041;-45
2023/10/09 01:54:49;;;;;;;45.22;28.98;;;13.70;99.90;;;;;;5046860;28;20045;-45
2023/10/09 01:57:21;;;;;;;52.88;33.15;;;13.80;99.90;;;;;;5027718;28;20044;-48
2023/10/09 01:59:49;;;;;;;52.15;30.88;;;13.80;99.90;;;;;;5056872;28;20128;-45
2023/10/09 02:02:33;;;;;;;53.35;32.80;;;13.80;99.90;;;;;;5043080;28;20157;-46
2023/10/09 02:05:10;;;;;;;50.47;31.13;;;13.80;99.90;;;;;;5049064;28;20087;-46
2023/10/09 02:07:51;;;;;;;49.65;30.17;;;13.80;99.90;;;;;;5067659;28;20036;-45
2023/10/09 02:13:09;;;;;;;;;;;13.90;99.90;;;;;;5060362;28;20044;-44
2023/10/09 02:20:45;;;;;;;60.58;35.13;;;13.90;99.90;;;;;;5046578;28;20056;-45
2023/10/09 02:23:25;;;;;;;67.40;37.63;;;13.90;99.90;;;;;;5068630;28;20052;-45
2023/10/09 02:25:56;;;;;;;63.47;36.92;;;14.00;99.90;;;;;;5040626;28;20341;-44
2023/10/09 02:28:22;;;;;;;64.53;37.33;;;14.00;99.90;;;;;;5047780;28;20319;-44
2023/10/09 02:30:47;;;;;;;67.22;38.53;;;14.00;99.90;;;;;;5081784;28;20518;-44
2023/10/09 02:33:27;;;;;;;67.05;41.83;;;14.00;99.90;;;;;;5054567;28;20506;-44
2023/10/09 02:35:59;;;;;;;67.22;39.60;;;14.00;99.90;;;;;;5062093;28;20449;-44
2023/10/09 02:38:26;;;;;;;67.72;40.13;;;14.10;99.90;;;;;;5042115;28;20048;-48
2023/10/09 02:43:47;;;;;;;66.45;41.03;;;14.10;99.90;;;;;;5061175;28;20380;-44
2023/10/09 02:46:21;;;;;;;77.63;43.28;;;14.10;99.90;;;;;;5038963;28;20072;-45
2023/10/09 02:48:52;;;;;;;76.63;42.83;;;14.10;99.90;;;;;;5025574;28;20056;-44
2023/10/09 02:53:52;;;;;;;75.65;44.20;;;14.20;99.90;;;;;;5055887;28;20040;-48
2023/10/09 02:56:24;;;;;;;73.57;42.38;;;14.20;99.90;;;;;;5061593;28;20037;-46
2023/10/09 02:58:52;;;;;;;68.57;42.05;;;14.30;99.90;;;;;;5056322;28;20407;-45
2023/10/09 03:01:18;;;;;;;70.95;41.45;;;14.30;99.90;;;;;;5071968;28;20489;-46
2023/10/09 03:03:45;;;;;;;70.40;41.40;;;14.40;99.90;;;;;;5068511;28;20401;-44
2023/10/09 03:06:12;;;;;;;65.53;42.63;;;14.40;99.90;;;;;;5054695;28;20041;-47
2023/10/09 03:08:40;;;;;;;73.28;41.97;;;14.40;99.90;;;;;;5042200;28;20047;-48
2023/10/09 03:11:12;;;;;;;64.13;39.97;;;14.40;99.90;;;;;;5063687;28;20543;-45
2023/10/09 03:13:43;;;;;;;61.38;39.00;;;14.50;99.90;;;;;;5074692;28;20036;-47
2023/10/09 03:16:14;;;;;;;58.17;38.90;;;14.60;99.90;;;;;;5055661;28;20039;-44
2023/10/09 03:18:40;;;;;;;57.45;36.75;;;14.60;99.90;;;;;;5039346;28;20049;-44
2023/10/09 03:21:06;;;;;;;52.72;35.10;;;14.60;99.90;;;;;;5054561;28;20036;-45
2023/10/09 03:23:34;;;;;;;54.45;35.25;;;14.60;99.90;;;;;;5051185;28;20056;-44
2023/10/09 03:25:59;;;;;;;58.75;37.55;;;14.60;99.90;;;;;;5055514;28;20071;-46
2023/10/09 03:28:25;;;;;;;55.72;34.38;;;14.70;99.90;;;;;;5053325;28;20495;-44
2023/10/09 03:30:50;;;;;;;48.67;32.90;;;14.70;99.90;;;;;;5054945;28;20614;-48
2023/10/09 03:33:17;;;;;;;58.25;35.13;;;14.70;99.90;;;;;;5041872;28;20048;-46
2023/10/09 03:35:43;;;;;;;46.50;32.00;;;14.70;99.90;;;;;;5034279;28;20479;-47
2023/10/09 03:38:17;;;;;;;41.60;30.38;;;14.80;99.90;;;;;;5060568;28;20123;-45
2023/10/09 03:40:43;;;;;;;44.53;30.90;;;14.80;99.90;;;;;;5060754;28;20044;-47
2023/10/09 03:43:11;;;;;;;40.50;28.08;;;14.80;99.90;;;;;;5060157;28;20040;-46
2023/10/09 03:45:38;;;;;;;37.17;23.17;;;14.90;99.90;;;;;;5061079;28;20514;-44
2023/10/09 03:48:11;;;;;;;35.60;23.10;;;14.90;99.90;;;;;;5065175;28;20119;-45
2023/10/09 03:50:37;;;;;;;;;;;15.00;99.90;;;;;;5063894;28;20044;-48
2023/10/09 03:53:07;;;;;;;31.10;20.48;;;15.10;99.90;;;;;;5041682;28;19917;-45
2023/10/09 03:55:34;;;;;;;31.63;20.58;;;15.10;99.90;;;;;;5073261;28;20101;-46
2023/10/09 03:58:00;;;;;;;30.73;20.17;;;15.20;99.90;;;;;;5054750;28;20413;-46
2023/10/09 04:00:29;;;;;;;27.10;19.35;;;15.20;99.90;;;;;;5047889;28;20056;-45
2023/10/09 04:02:58;;;;;;;27.67;19.35;;;15.20;99.90;;;;;;5040144;28;20037;-49
2023/10/09 04:05:28;;;;;;;24.83;17.80;;;15.30;99.90;;;;;;5063146;28;20036;-49
2023/10/09 04:07:58;;;;;;;27.20;17.75;;;15.30;99.90;;;;;;5060378;28;20041;-47
2023/10/09 04:10:32;;;;;;;23.30;16.75;;;15.40;99.90;;;;;;5065074;28;20040;-46
2023/10/09 04:13:00;;;;;;;27.08;15.82;;;15.40;99.90;;;;;;5042236;28;20052;-48
2023/10/09 04:15:30;;;;;;;26.05;15.77;;;15.50;99.90;;;;;;5040662;28;20039;-46
2023/10/09 04:17:56;;;;;;;25.83;15.82;;;15.50;99.90;;;;;;5039316;28;20058;-48
2023/10/09 04:22:50;;;;;;;25.25;13.80;;;15.60;99.90;;;;;;5068062;28;20051;-44
2023/10/09 04:25:25;;;;;;;23.60;14.38;;;15.60;99.90;;;;;;5058122;28;20407;-46
2023/10/09 04:28:03;;;;;;;20.67;13.57;;;15.70;99.90;;;;;;5060377;28;20067;-45
2023/10/09 04:30:29;;;;;;;23.50;14.02;;;15.70;99.90;;;;;;5050323;28;20405;-45
2023/10/09 04:32:59;;;;;;;20.35;12.98;;;15.70;99.90;;;;;;5070695;28;20143;-46
2023/10/09 04:35:29;;;;;;;19.60;12.90;;;15.70;99.90;;;;;;5041822;28;20539;-45
2023/10/09 04:38:05;;;;;;;29.92;13.68;;;15.70;99.90;;;;;;5015857;28;20511;-44
2023/10/09 04:43:06;;;;;;;25.42;13.95;;;15.70;99.90;;;;;;5059074;28;20052;-45
2023/10/09 04:48:10;;;;;;;23.15;12.80;;;15.70;99.90;;;;;;5042176;28;20056;-48
2023/10/09 04:50:45;;;;;;;23.58;13.52;;;15.60;99.90;;;;;;5061183;28;20874;-46
2023/10/09 04:55:44;;;;;;;19.40;13.02;;;15.60;99.90;;;;;;5053617;28;20443;-44
2023/10/09 04:58:18;;;;;;;25.33;12.77;;;15.60;99.90;;;;;;5070883;28;20524;-44
2023/10/09 05:00:47;;;;;;;18.90;12.80;;;15.60;99.90;;;;;;5058741;28;20585;-44
2023/10/09 05:03:24;;;;;;;25.95;12.88;;;15.60;99.90;;;;;;5034589;28;20053;-44
2023/10/09 05:05:58;;;;;;;24.02;13.30;;;15.60;99.90;;;;;;5066911;28;20032;-44
2023/10/09 05:16:04;;;;;;;20.75;12.45;;;15.60;99.90;;;;;;5040448;28;20056;-47
2023/10/09 05:18:36;;;;;;;25.17;12.88;;;15.70;99.90;;;;;;5074770;28;20055;-46
2023/10/09 05:21:35;;;;;;;22.60;12.90;;;15.70;99.90;;;;;;5043118;28;20083;-49
2023/10/09 05:29:19;;;;;;;20.48;12.00;;;15.70;99.90;;;;;;5049035;28;20533;-45
2023/10/09 05:37:26;;;;;;;23.15;12.48;;;15.70;99.90;;;;;;5051103;28;20051;-48
2023/10/09 05:42:42;;;;;;;22.45;11.40;;;15.70;99.90;;;;;;5057609;28;20816;-46
2023/10/09 05:47:53;;;;;;;27.30;11.55;;;15.80;99.90;;;;;;5075438;28;20071;-49
2023/10/09 06:08:27;;;;;;;22.63;11.95;;;15.80;99.90;;;;;;5049558;28;20410;-45
2023/10/09 06:13:46;;;;;;;23.77;11.38;;;15.70;99.90;;;;;;5075318;28;19920;-46
2023/10/09 06:16:19;;;;;;;21.88;11.90;;;15.70;99.90;;;;;;5063013;28;20068;-45
2023/10/09 06:19:07;;;;;;;20.88;11.30;;;15.70;99.90;;;;;;5046773;28;20047;-49
2023/10/09 06:22:19;;;;;;;18.30;11.18;;;15.70;99.90;;;;;;5067842;28;20763;-45
2023/10/09 06:24:54;;;;;;;28.52;13.20;;;15.80;99.90;;;;;;5073044;28;20052;-46
2023/10/09 06:32:57;;;;;;;24.70;11.70;;;15.80;99.90;;;;;;5070019;28;20055;-49
2023/10/09 06:35:33;;;;;;;21.83;10.65;;;15.80;99.90;;;;;;5063426;28;20096;-46
2023/10/09 06:43:53;;;;;;;26.27;12.13;;;15.80;99.90;;;;;;5063795;28;20633;-47
2023/10/09 06:46:43;;;;;;;24.42;12.05;;;15.80;99.90;;;;;;5049601;28;20127;-46
2023/10/09 06:48:55;;;;;;;18.45;10.77;;;15.90;99.90;;;;;;5059005;28;20045;-46
2023/10/09 06:59:14;;;;;;;18.80;10.57;;;15.80;99.90;;;;;;5061717;28;20087;-44
2023/10/09 07:01:42;;;;;;;19.50;11.77;;;15.90;99.90;;;;;;5042569;28;20056;-44
2023/10/09 07:06:56;;;;;;;24.27;12.27;;;15.90;99.90;;;;;;5061293;28;20132;-44
2023/10/09 07:09:22;;;;;;;21.50;11.02;;;15.90;99.90;;;;;;5041805;28;20048;-46
2023/10/09 07:17:15;;;;;;;25.85;11.60;;;15.90;99.90;;;;;;5056515;28;20052;-45
2023/10/09 07:24:57;;;;;;;27.08;12.35;;;15.90;99.90;;;;;;5054576;28;21418;-44
2023/10/09 07:30:35;;;;;;;25.13;11.32;;;16.00;99.90;;;;;;5061234;28;20140;-47
2023/10/09 07:32:55;;;;;;;22.73;11.25;;;16.00;99.90;;;;;;5053640;28;20382;-45
2023/10/09 07:35:46;;;;;;;27.27;12.27;;;16.10;99.90;;;;;;5039735;28;20045;-48
2023/10/09 07:38:28;;;;;;;25.95;12.55;;;16.10;99.90;;;;;;5057919;28;20107;-49
2023/10/09 07:43:26;;;;;;;25.25;11.50;;;16.20;99.90;;;;;;5060133;28;20059;-44
2023/10/09 07:48:27;;;;;;;25.50;11.43;;;16.20;99.90;;;;;;5045598;28;20479;-45
2023/10/09 07:51:05;;;;;;;26.52;11.27;;;16.30;99.90;;;;;;5060551;28;20147;-45
2023/10/09 07:53:43;;;;;;;26.02;11.73;;;16.30;99.90;;;;;;5060819;28;20207;-46
2023/10/09 07:56:09;;;;;;;24.70;12.95;;;16.30;99.90;;;;;;5044293;28;20460;-45
2023/10/09 07:58:46;;;;;;;25.35;12.43;;;16.30;99.90;;;;;;5042143;28;20277;-44
2023/10/09 08:01:15;;;;;;;21.40;11.27;;;16.40;99.90;;;;;;5060056;28;20044;-45
2023/10/09 08:03:45;;;;;;;24.02;12.48;;;16.30;99.90;;;;;;5059877;28;20040;-46
2023/10/09 08:17:15;;;;;;;28.40;12.13;;;16.40;99.90;;;;;;5069236;28;20685;-44
2023/10/09 08:20:11;;;;;;;31.42;13.00;;;16.30;99.90;;;;;;5043453;28;20052;-45
2023/10/09 08:22:43;;;;;;;21.30;12.18;;;16.30;99.90;;;;;;5041923;28;20127;-46
2023/10/09 08:25:26;;;;;;;23.67;11.90;;;16.30;99.90;;;;;;5068539;28;20052;-44
2023/10/09 08:27:56;;;;;;;25.58;10.98;;;16.30;99.90;;;;;;5048156;28;20060;-48
2023/10/09 08:33:02;;;;;;;26.20;11.75;;;16.30;99.90;;;;;;5065803;28;20040;-46
2023/10/09 08:35:35;;;;;;;25.67;12.00;;;16.30;99.90;;;;;;5043865;28;20055;-49
2023/10/09 08:38:07;;;;;;;22.58;11.70;;;16.30;99.90;;;;;;5038979;28;20048;-45
2023/10/09 08:40:39;;;;;;;20.45;11.43;;;16.30;99.90;;;;;;5041499;28;20036;-45
2023/10/09 08:43:18;;;;;;;28.52;11.30;;;16.30;99.90;;;;;;5058762;28;20139;-44
2023/10/09 08:45:51;;;;;;;30.02;11.73;;;16.40;99.90;;;;;;5060770;28;20048;-45
2023/10/09 08:48:18;;;;;;;22.77;11.00;;;16.40;99.90;;;;;;5062514;28;20054;-47
2023/10/09 08:50:49;;;;;;;25.33;11.20;;;16.40;99.90;;;;;;5061174;28;20063;-47
2023/10/09 08:53:16;;;;;;;27.65;11.55;;;16.50;99.90;;;;;;5063828;28;20225;-45
2023/10/09 08:55:43;;;;;;;30.20;11.15;;;16.50;99.90;;;;;;5064645;28;20040;-47
2023/10/09 08:58:26;;;;;;;26.30;11.45;;;16.50;99.90;;;;;;5040460;28;20041;-47
2023/10/09 09:00:55;;;;;;;28.92;11.68;;;16.50;99.90;;;;;;5056567;28;20388;-45
2023/10/09 09:03:24;;;;;;;24.95;11.65;;;16.50;99.90;;;;;;5040610;28;20111;-46
2023/10/09 09:06:01;;;;;;;25.63;12.57;;;16.50;99.90;;;;;;5023753;28;20040;-45
2023/10/09 09:08:28;;;;;;;27.63;11.98;;;16.50;99.90;;;;;;5064276;28;20052;-46
2023/10/09 09:11:13;;;;;;;26.42;12.07;;;16.60;99.90;;;;;;5041878;28;20545;-48
2023/10/09 09:13:50;;;;;;;25.42;11.10;;;16.60;99.90;;;;;;5039889;28;20032;-44
2023/10/09 09:16:29;;;;;;;26.70;12.13;;;16.70;99.90;;;;;;5064791;28;20139;-47
2023/10/09 09:21:29;;;;;;;;;;;16.70;99.90;;;;;;5051515;28;20059;-43
2023/10/09 09:24:01;;;;;;;18.85;10.48;;;16.80;99.90;;;;;;5064260;28;20351;-44
2023/10/09 09:26:44;;;;;;;24.07;10.93;;;16.90;99.90;;;;;;5019384;28;20491;-45
2023/10/09 09:29:11;;;;;;;26.85;11.60;;;16.90;99.90;;;;;;5063428;28;20047;-44
2023/10/09 09:31:41;;;;;;;23.50;12.98;;;17.00;99.90;;;;;;5036697;28;20071;-47
2023/10/09 09:34:16;;;;;;;28.13;11.63;;;17.00;99.90;;;;;;5028513;28;20486;-46
2023/10/09 09:36:57;;;;;;;22.75;12.02;;;17.10;99.90;;;;;;5063481;28;20039;-45
2023/10/09 09:39:28;;;;;;;23.90;11.15;;;17.10;99.90;;;;;;5083095;28;20043;-44
2023/10/09 09:41:57;;;;;;;26.33;11.88;;;17.10;99.90;;;;;;5067847;28;20056;-44
2023/10/09 09:44:26;;;;;;;20.20;11.82;;;17.20;99.90;;;;;;5067136;28;20048;-46
2023/10/09 09:46:55;;;;;;;25.35;11.35;;;17.20;99.90;;;;;;5070463;28;20122;-45
2023/10/09 09:49:21;;;;;;;26.63;10.52;;;17.20;99.90;;;;;;5062652;28;20066;-49
2023/10/09 09:51:47;;;;;;;25.65;10.60;;;17.20;99.90;;;;;;5069150;28;20569;-46
2023/10/09 09:54:16;;;;;;;19.85;10.68;;;17.20;99.90;;;;;;5050253;28;20391;-47
2023/10/09 09:56:51;;;;;;;23.65;11.68;;;17.30;99.90;;;;;;5063398;28;20033;-49
2023/10/09 09:59:21;;;;;;;21.38;10.55;;;17.30;99.90;;;;;;5075419;28;20050;-45
2023/10/09 10:01:56;;;;;;;22.15;10.27;;;17.30;99.90;;;;;;5041326;28;20045;-46
2023/10/09 10:04:26;;;;;;;22.65;10.98;;;17.30;99.90;;;;;;5043538;28;20051;-46
2023/10/09 10:06:55;;;;;;;21.33;10.30;;;17.40;99.90;;;;;;5043659;28;20694;-44
2023/10/09 10:09:41;;;;;;;21.60;10.82;;;17.50;99.90;;;;;;5043614;28;20040;-44
2023/10/09 10:12:11;;;;;;;19.42;10.35;;;17.50;99.90;;;;;;5055084;28;20256;-44
2023/10/09 10:15:08;;;;;;;25.50;11.10;;;17.50;99.90;;;;;;5076305;28;20076;-48
2023/10/09 10:17:59;;;;;;;23.60;10.93;;;17.60;99.90;;;;;;5058416;28;20036;-48
2023/10/09 10:20:25;;;;;;;22.77;10.15;;;17.50;99.90;;;;;;5055879;28;20044;-48
2023/10/09 10:23:17;;;;;;;20.25;9.75;;;17.50;99.90;;;;;;5068618;28;20458;-48
2023/10/09 10:25:48;;;;;;;20.33;9.65;;;17.40;99.90;;;;;;5062013;28;20544;-46
2023/10/09 10:29:01;;;;;;;16.92;10.35;;;17.40;99.90;;;;;;5023769;28;20036;-43
2023/10/09 10:31:16;;;;;;;22.20;9.93;;;17.40;99.90;;;;;;5057704;28;20052;-47
2023/10/09 10:33:54;;;;;;;22.38;10.13;;;17.30;99.90;;;;;;5043649;28;20110;-49
2023/10/09 10:36:23;;;;;;;18.25;9.50;;;17.30;99.90;;;;;;5056912;28;20097;-50
2023/10/09 10:39:19;;;;;;;21.83;11.20;;;17.30;99.90;;;;;;5060575;28;20048;-47
2023/10/09 10:42:05;;;;;;;24.57;11.37;;;17.30;99.90;;;;;;5026676;28;1080614;-47
2023/10/09 10:44:38;;;;;;;21.80;11.20;;;17.30;99.90;;;;;;5058318;28;20388;-47
2023/10/09 10:53:14;;;;;;;20.25;10.75;;;17.30;99.90;;;;;;5053912;28;20044;-48
2023/10/09 10:55:56;;;;;;;24.55;10.65;;;17.40;99.90;;;;;;5061634;28;20052;-46
2023/10/09 10:58:25;;;;;;;22.38;10.38;;;17.60;99.90;;;;;;5062336;28;20158;-45
2023/10/09 11:03:29;;;;;;;22.48;9.05;;;18.00;99.90;;;;;;5051499;28;20045;-45
2023/10/09 11:05:55;;;;;;;20.17;8.82;;;18.10;99.90;;;;;;5062341;28;20361;-45
2023/10/09 11:08:31;;;;;;;19.40;10.18;;;18.20;99.90;;;;;;5032067;28;20111;-45
2023/10/09 11:11:15;;;;;;;21.60;8.82;;;18.40;99.90;;;;;;5064355;28;20044;-47
2023/10/09 11:13:57;;;;;;;21.63;9.02;;;18.70;99.90;;;;;;5041803;28;20036;-49
2023/10/09 11:16:43;;;;;;;14.50;8.35;;;18.80;99.90;;;;;;5054942;28;20060;-48
2023/10/09 11:19:22;;;;;;;17.63;10.00;;;18.80;99.90;;;;;;5056724;28;20205;-45
2023/10/09 11:21:57;;;;;;;17.52;8.95;;;18.80;99.90;;;;;;5039686;28;20384;-47
2023/10/09 11:24:33;;;;;;;20.80;9.20;;;18.70;99.90;;;;;;5065548;28;20075;-46
2023/10/09 11:27:05;;;;;;;22.17;9.07;;;18.70;99.90;;;;;;5057581;28;20054;-48
2023/10/09 11:32:18;;;;;;;20.40;8.45;;;18.80;99.90;;;;;;5058427;28;20356;-44
2023/10/09 11:34:51;;;;;;;20.27;7.82;;;18.80;99.90;;;;;;5049210;28;20627;-47
2023/10/09 11:37:38;;;;;;;15.68;6.85;;;18.80;99.90;;;;;;5076111;28;20044;-48
2023/10/09 11:40:21;;;;;;;14.40;6.30;;;18.80;99.90;;;;;;5062892;28;20049;-48
2023/10/09 11:42:49;;;;;;;12.18;6.18;;;18.70;99.90;;;;;;5059307;28;20159;-49
2023/10/09 11:45:29;;;;;;;11.95;5.90;;;18.60;99.90;;;;;;5059848;28;20143;-47
2023/10/09 11:47:57;;;;;;;15.75;5.57;;;18.50;99.90;;;;;;5062941;28;20822;-46
2023/10/09 11:50:43;;;;;;;14.95;5.53;;;18.50;99.90;;;;;;5063093;28;20271;-45
2023/10/09 11:53:19;;;;;;;17.50;5.75;;;18.40;99.90;;;;;;5059140;28;20396;-45
2023/10/09 11:55:52;;;;;;;13.48;6.85;;;18.30;99.90;;;;;;5069858;28;20292;-45
2023/10/09 11:58:24;;;;;;;12.70;4.97;;;18.20;99.90;;;;;;5054618;28;20049;-45
2023/10/09 12:01:03;;;;;;;13.07;5.20;;;18.20;99.90;;;;;;5060265;28;20040;-44
2023/10/09 12:03:29;;;;;;;13.80;5.28;;;18.20;99.90;;;;;;5076936;28;20079;-45
2023/10/09 12:06:05;;;;;;;13.45;5.60;;;18.10;99.90;;;;;;5034271;28;20407;-44
2023/10/09 12:08:34;;;;;;;12.05;5.50;;;18.00;99.90;;;;;;5032562;28;20554;-48
2023/10/09 12:11:08;;;;;;;13.50;5.18;;;18.00;99.90;;;;;;5061089;28;20044;-44
2023/10/09 12:13:34;;;;;;;13.52;5.47;;;18.00;99.90;;;;;;5073064;28;20510;-44
2023/10/09 12:15:59;;;;;;;18.13;6.13;;;18.20;99.90;;;;;;5042001;28;20044;-44
2023/10/09 12:18:25;;;;;;;14.13;5.43;;;18.30;99.90;;;;;;5042366;28;20036;-46
2023/10/09 12:20:52;;;;;;;13.27;5.57;;;18.30;99.90;;;;;;5060166;28;20526;-44
2023/10/09 12:23:22;;;;;;;11.68;5.22;;;18.40;99.90;;;;;;5059785;28;20360;-46
2023/10/09 12:25:56;;;;;;;13.90;5.22;;;18.40;99.90;;;;;;5045873;28;20449;-45
2023/10/09 12:28:22;;;;;;;13.30;6.07;;;18.40;99.90;;;;;;5063742;28;20051;-44
2023/10/09 12:30:51;;;;;;;17.42;6.07;;;18.40;99.90;;;;;;5045185;28;20041;-45
2023/10/09 12:33:19;;;;;;;16.27;6.47;;;18.40;99.90;;;;;;5058905;28;20106;-43
2023/10/09 12:35:45;;;;;;;14.75;6.20;;;18.50;99.90;;;;;;5038440;28;20037;-45
2023/10/09 12:38:13;;;;;;;16.52;6.60;;;18.60;99.90;;;;;;5064235;28;20497;-45
2023/10/09 12:40:41;;;;;;;20.80;6.72;;;18.70;99.90;;;;;;5039546;28;20048;-44
2023/10/09 12:43:15;;;;;;;15.23;6.25;;;18.90;99.90;;;;;;5052660;28;20056;-45
2023/10/09 12:45:42;;;;;;;15.45;6.18;;;18.90;99.90;;;;;;5049677;28;20037;-47
2023/10/09 12:48:09;;;;;;;15.15;5.80;;;18.90;99.90;;;;;;5040208;28;20119;-46
2023/10/09 12:50:41;;;;;;;13.10;5.88;;;18.90;99.90;;;;;;5061737;28;20145;-45
2023/10/09 12:53:08;;;;;;;17.40;5.63;;;18.80;99.90;;;;;;5065482;28;20051;-45
2023/10/09 12:55:40;;;;;;;14.68;5.68;;;18.70;99.90;;;;;;5059501;28;20041;-47
2023/10/09 12:58:14;;;;;;;14.00;5.57;;;18.60;99.90;;;;;;5059857;28;20036;-44
2023/10/09 13:00:49;;;;;;;14.13;6.00;;;18.50;99.90;;;;;;5051313;28;20052;-45
2023/10/09 13:03:17;;;;;;;15.27;5.68;;;18.40;99.90;;;;;;5037689;28;20044;-45
2023/10/09 13:05:56;;;;;;;14.02;5.45;;;18.40;99.90;;;;;;5027602;28;20041;-43
2023/10/09 13:08:23;;;;;;;17.23;6.10;;;18.40;99.90;;;;;;5041384;28;20252;-45
2023/10/09 13:10:58;;;;;;;15.80;5.28;;;18.40;99.90;;;;;;5037193;28;20483;-44
2023/10/09 13:13:39;;;;;;;13.13;5.63;;;18.50;99.90;;;;;;5055390;28;20062;-44
2023/10/09 13:16:07;;;;;;;14.20;5.18;;;18.40;99.90;;;;;;5057817;28;20695;-45
2023/10/09 13:18:32;;;;;;;13.15;5.53;;;18.40;99.90;;;;;;5041598;28;20490;-44
2023/10/09 13:21:03;;;;;;;9.57;4.78;;;18.40;99.90;;;;;;5038400;28;20315;-45
2023/10/09 13:23:38;;;;;;;16.50;4.47;;;18.50;99.90;;;;;;5056465;28;20028;-49
2023/10/09 13:26:17;;;;;;;12.93;5.05;;;18.50;99.90;;;;;;5039758;28;20036;-44
2023/10/09 13:28:45;;;;;;;11.40;4.85;;;18.60;99.90;;;;;;5061300;28;20072;-48
2023/10/09 13:31:15;;;;;;;9.85;5.28;;;18.60;99.90;;;;;;5058397;28;20202;-44
2023/10/09 13:33:45;;;;;;;16.40;4.85;;;18.60;99.90;;;;;;5061872;28;20128;-44
2023/10/09 13:36:19;;;;;;;8.70;4.10;;;18.60;99.90;;;;;;5042354;28;20043;-47
2023/10/09 13:38:48;;;;;;;13.95;4.63;;;18.50;99.90;;;;;;5059013;28;20040;-45
2023/10/09 13:41:14;;;;;;;13.73;5.00;;;18.50;99.90;;;;;;5040017;28;20918;-44
2023/10/09 13:43:41;;;;;;;15.93;6.28;;;18.40;99.90;;;;;;5057937;28;20061;-45
2023/10/09 13:46:11;;;;;;;13.00;5.18;;;18.40;99.90;;;;;;5036995;28;20045;-44
2023/10/09 13:48:40;;;;;;;13.70;5.18;;;18.40;99.90;;;;;;5060026;28;20045;-45
2023/10/09 13:51:09;;;;;;;16.45;5.75;;;18.40;99.90;;;;;;5039530;28;20259;-44
2023/10/09 13:53:44;;;;;;;12.10;5.40;;;18.40;99.90;;;;;;5063357;28;20405;-44
2023/10/09 13:56:20;;;;;;;12.60;5.13;;;18.40;99.90;;;;;;5053716;28;20057;-44
2023/10/09 13:58:53;;;;;;;11.18;5.30;;;18.40;99.90;;;;;;5056579;28;20344;-45
2023/10/09 14:01:28;;;;;;;15.88;6.03;;;18.30;99.90;;;;;;5044879;28;20122;-45
2023/10/09 14:03:55;;;;;;;14.82;5.15;;;18.20;99.90;;;;;;5026572;28;20593;-45
2023/10/09 14:06:30;;;;;;;14.02;5.68;;;18.10;99.90;;;;;;5040591;28;20387;-45
2023/10/09 14:08:56;;;;;;;12.90;5.63;;;18.10;99.90;;;;;;5055313;28;20124;-45
2023/10/09 14:11:22;;;;;;;13.70;5.15;;;18.00;99.90;;;;;;5056658;28;20041;-44
2023/10/09 14:13:48;;;;;;;15.88;5.38;;;17.90;99.90;;;;;;5066104;28;20107;-45
2023/10/09 14:16:29;;;;;;;15.02;5.57;;;17.90;99.90;;;;;;5080243;28;20047;-45
2023/10/09 14:19:00;;;;;;;11.02;5.03;;;17.80;99.90;;;;;;5066429;28;20048;-44
2023/10/09 14:21:33;;;;;;;11.77;4.93;;;17.80;99.90;;;;;;5065911;28;20044;-49
2023/10/09 14:23:59;;;;;;;12.98;4.93;;;17.80;99.90;;;;;;5046772;28;20040;-45
2023/10/09 14:26:29;;;;;;;11.27;4.30;;;17.80;99.90;;;;;;5060136;28;20049;-46
2023/10/09 14:28:56;;;;;;;9.35;4.43;;;17.70;99.90;;;;;;5037681;28;20053;-44
2023/10/09 14:31:31;;;;;;;12.20;5.13;;;17.70;99.90;;;;;;5033176;28;20045;-44
2023/10/09 14:33:57;;;;;;;16.90;5.35;;;17.70;99.90;;;;;;5048026;28;20055;-46
2023/10/09 14:36:25;;;;;;;10.15;4.13;;;17.60;99.90;;;;;;5081843;28;20032;-45
2023/10/09 14:38:56;;;;;;;10.52;3.80;;;17.50;99.90;;;;;;5045086;28;20059;-44
2023/10/09 14:41:26;;;;;;;11.82;5.07;;;17.50;99.90;;;;;;5062622;28;20398;-45
2023/10/09 14:43:52;;;;;;;11.35;4.10;;;17.40;99.90;;;;;;5064909;28;20056;-45
2023/10/09 14:46:29;;;;;;;10.82;3.60;;;17.40;99.90;;;;;;5062820;28;20054;-44
2023/10/09 14:48:55;;;;;;;10.90;4.50;;;17.30;99.90;;;;;;5043647;28;20414;-47
2023/10/09 14:51:27;;;;;;;8.18;3.90;;;17.30;99.90;;;;;;5043241;28;20120;-47
2023/10/09 14:53:57;;;;;;;10.33;3.97;;;17.30;99.90;;;;;;5036659;28;20087;-49
2023/10/09 14:56:28;;;;;;;7.88;3.40;;;17.40;99.90;;;;;;5075462;28;20791;-46
2023/10/09 14:58:58;;;;;;;10.90;4.45;;;17.30;99.90;;;;;;5055574;28;20051;-48
2023/10/09 15:01:31;;;;;;;8.25;3.40;;;17.30;99.90;;;;;;5068272;28;20040;-47
2023/10/09 15:04:00;;;;;;;8.07;3.33;;;17.30;99.90;;;;;;5062175;28;20119;-45
2023/10/09 15:06:30;;;;;;;8.70;4.07;;;17.30;99.90;;;;;;5063279;28;20127;-47
2023/10/09 15:08:57;;;;;;;11.57;3.70;;;17.30;99.90;;;;;;5063050;28;20105;-50
2023/10/09 15:11:25;;;;;;;10.80;3.60;;;17.30;99.90;;;;;;5043230;28;20055;-47
2023/10/09 15:14:00;;;;;;;6.47;2.95;;;17.30;99.90;;;;;;5029995;28;20054;-45